createdAt,value
2018-05-15T00:00:57.446Z,0.00
2018-05-15T00:01:57.432Z,0.00
2018-05-15T00:03:11.682Z,0.00
2018-05-15T00:03:57.434Z,0.00
2018-05-15T00:04:57.436Z,0.00
2018-05-15T00:05:57.534Z,0.00
2018-05-15T00:06:57.437Z,0.00
2018-05-15T00:08:02.793Z,0.00
2018-05-15T00:08:57.436Z,0.00
2018-05-15T00:09:57.426Z,0.00
2018-05-15T00:10:57.459Z,0.00
2018-05-15T00:11:57.434Z,0.00
2018-05-15T00:12:57.431Z,0.00
2018-05-15T00:13:57.591Z,0.00
2018-05-15T00:14:57.449Z,0.00
2018-05-15T00:15:57.435Z,0.00
2018-05-15T00:16:57.435Z,0.00
2018-05-15T00:17:57.432Z,0.00
2018-05-15T00:18:57.429Z,0.00
2018-05-15T00:19:57.471Z,0.00
2018-05-15T00:20:57.423Z,0.00
2018-05-15T00:21:57.445Z,0.00
2018-05-15T00:22:57.432Z,0.00
2018-05-15T00:23:57.432Z,0.00
2018-05-15T00:24:57.468Z,0.00
2018-05-15T00:25:57.428Z,0.00
2018-05-15T00:26:57.424Z,0.00
2018-05-15T00:27:57.425Z,0.00
2018-05-15T00:28:57.421Z,0.00
2018-05-15T00:29:57.477Z,0.00
2018-05-15T00:30:57.421Z,0.00
2018-05-15T00:31:57.432Z,0.00
2018-05-15T00:32:57.425Z,0.00
2018-05-15T00:33:57.426Z,0.00
2018-05-15T00:34:57.482Z,0.00
2018-05-15T00:35:57.421Z,0.00
2018-05-15T00:36:57.422Z,0.00
2018-05-15T00:37:57.422Z,0.00
2018-05-15T00:38:57.642Z,0.00
2018-05-15T00:39:57.464Z,0.00
2018-05-15T00:40:57.423Z,0.00
2018-05-15T00:41:57.415Z,0.00
2018-05-15T00:42:57.414Z,0.00
2018-05-15T00:43:57.415Z,0.00
2018-05-15T00:44:59.341Z,0.00
2018-05-15T00:45:57.419Z,0.00
2018-05-15T00:46:57.411Z,0.00
2018-05-15T00:47:57.415Z,0.00
2018-05-15T00:48:57.422Z,0.00
2018-05-15T00:49:57.415Z,0.00
2018-05-15T00:51:05.191Z,0.00
2018-05-15T00:51:57.408Z,0.00
2018-05-15T00:52:57.409Z,0.00
2018-05-15T00:53:58.292Z,0.00
2018-05-15T00:54:57.412Z,0.00
2018-05-15T00:55:57.455Z,0.00
2018-05-15T00:56:57.401Z,0.00
2018-05-15T00:57:57.404Z,0.00
2018-05-15T00:58:57.471Z,0.00
2018-05-15T00:59:57.400Z,0.00
2018-05-15T01:00:57.785Z,0.00
2018-05-15T01:01:57.405Z,0.00
2018-05-15T01:02:57.396Z,0.00
2018-05-15T01:03:57.404Z,0.00
2018-05-15T01:04:57.400Z,0.00
2018-05-15T01:05:57.417Z,0.00
2018-05-15T01:07:08.182Z,0.00
2018-05-15T01:07:58.334Z,0.00
2018-05-15T01:08:57.402Z,0.00
2018-05-15T01:09:57.417Z,0.00
2018-05-15T01:10:57.435Z,0.00
2018-05-15T01:11:57.391Z,0.00
2018-05-15T01:12:57.386Z,0.00
2018-05-15T01:13:57.386Z,0.00
2018-05-15T01:14:57.394Z,0.00
2018-05-15T01:15:57.422Z,0.00
2018-05-15T01:16:57.383Z,0.00
2018-05-15T01:17:57.384Z,0.00
2018-05-15T01:18:57.391Z,0.00
2018-05-15T01:19:57.412Z,0.00
2018-05-15T01:22:29.017Z,0.00
2018-05-15T01:23:28.977Z,0.00
2018-05-15T01:24:28.969Z,0.00
2018-05-15T01:25:34.136Z,0.00
2018-05-15T01:26:28.972Z,0.00
2018-05-15T01:27:28.982Z,0.00
2018-05-15T01:28:28.968Z,0.00
2018-05-15T01:29:28.964Z,0.00
2018-05-15T01:30:28.973Z,0.00
2018-05-15T01:31:29.436Z,0.00
2018-05-15T01:32:28.968Z,0.00
2018-05-15T01:33:28.969Z,0.00
2018-05-15T01:34:28.958Z,0.00
2018-05-15T01:35:29.107Z,0.00
2018-05-15T01:36:28.966Z,0.00
2018-05-15T01:37:28.968Z,0.00
2018-05-15T01:38:28.976Z,0.00
2018-05-15T01:39:28.966Z,0.00
2018-05-15T01:40:28.973Z,0.00
2018-05-15T01:41:30.638Z,0.00
2018-05-15T01:42:29.024Z,0.00
2018-05-15T01:43:28.950Z,0.00
2018-05-15T01:44:28.952Z,0.00
2018-05-15T01:45:29.147Z,0.00
2018-05-15T01:46:28.949Z,0.00
2018-05-15T01:47:28.945Z,0.00
2018-05-15T01:48:28.944Z,0.00
2018-05-15T01:49:28.952Z,0.00
2018-05-15T01:50:28.944Z,0.00
2018-05-15T01:51:29.028Z,0.00
2018-05-15T01:52:28.941Z,0.00
2018-05-15T01:53:28.944Z,0.00
2018-05-15T01:54:28.941Z,0.00
2018-05-15T01:55:28.959Z,0.00
2018-05-15T01:56:50.768Z,0.00
2018-05-15T01:57:28.936Z,0.00
2018-05-15T01:58:28.934Z,0.00
2018-05-15T01:59:28.933Z,0.00
2018-05-15T02:02:00.612Z,0.00
2018-05-15T02:03:00.608Z,0.00
2018-05-15T02:04:00.602Z,0.00
2018-05-15T02:05:00.599Z,0.00
2018-05-15T02:06:02.194Z,0.00
2018-05-15T02:07:00.599Z,0.00
2018-05-15T02:08:00.594Z,0.00
2018-05-15T02:09:00.599Z,0.00
2018-05-15T02:10:00.593Z,0.00
2018-05-15T02:12:53.240Z,0.00
2018-05-15T02:13:32.199Z,0.00
2018-05-15T02:14:32.199Z,0.00
2018-05-15T02:15:32.202Z,0.00
2018-05-15T02:16:50.347Z,0.00
2018-05-15T02:17:32.196Z,0.00
2018-05-15T02:18:32.192Z,0.00
2018-05-15T02:19:32.192Z,0.00
2018-05-15T02:20:32.193Z,0.00
2018-05-15T02:23:03.852Z,0.00
2018-05-15T02:24:04.196Z,0.00
2018-05-15T02:25:03.809Z,0.00
2018-05-15T02:26:04.445Z,0.00
2018-05-15T02:27:03.805Z,0.00
2018-05-15T02:28:03.805Z,0.00
2018-05-15T02:29:03.802Z,0.00
2018-05-15T02:30:03.802Z,0.00
2018-05-15T02:31:25.439Z,0.00
2018-05-15T02:32:03.796Z,0.00
2018-05-15T02:33:03.818Z,0.00
2018-05-15T02:34:03.799Z,0.00
2018-05-15T02:35:03.799Z,0.00
2018-05-15T02:36:03.943Z,0.00
2018-05-15T02:37:03.796Z,0.00
2018-05-15T02:38:03.792Z,0.00
2018-05-15T02:39:04.516Z,0.00
2018-05-15T02:40:03.789Z,0.00
2018-05-15T02:41:04.439Z,0.00
2018-05-15T02:42:03.789Z,0.00
2018-05-15T02:43:04.268Z,0.00
2018-05-15T02:44:03.856Z,0.00
2018-05-15T02:45:03.780Z,4.00
2018-05-15T02:49:07.109Z,4.00
2018-05-15T02:50:07.064Z,4.00
2018-05-15T02:51:21.178Z,4.00
2018-05-15T02:52:07.060Z,4.00
2018-05-15T02:53:07.058Z,8.00
2018-05-15T02:54:07.059Z,8.00
2018-05-15T02:55:07.062Z,8.00
2018-05-15T02:56:08.509Z,8.00
2018-05-15T02:57:07.056Z,12.00
2018-05-15T02:58:07.049Z,16.00
2018-05-15T02:59:07.069Z,16.00
2018-05-15T03:00:07.050Z,16.00
2018-05-15T03:02:44.302Z,24.00
2018-05-15T03:03:38.694Z,32.00
2018-05-15T03:04:38.692Z,36.00
2018-05-15T03:05:52.799Z,40.00
2018-05-15T03:06:39.347Z,44.00
2018-05-15T03:07:38.681Z,52.00
2018-05-15T03:08:38.687Z,60.00
2018-05-15T03:09:38.682Z,68.00
2018-05-15T03:10:38.700Z,80.00
2018-05-15T03:12:00.599Z,88.00
2018-05-15T03:12:38.675Z,100.00
2018-05-15T03:13:38.678Z,112.00
2018-05-15T03:14:38.682Z,124.00
2018-05-15T03:15:38.674Z,140.00
2018-05-15T03:17:13.799Z,156.00
2018-05-15T03:17:38.674Z,172.00
2018-05-15T03:18:39.576Z,188.00
2018-05-15T03:19:38.671Z,208.00
2018-05-15T03:20:38.664Z,228.00
2018-05-15T03:21:38.678Z,248.00
2018-05-15T03:22:46.476Z,272.00
2018-05-15T03:23:38.661Z,300.00
2018-05-15T03:24:38.766Z,324.00
2018-05-15T03:25:38.654Z,352.00
2018-05-15T03:26:38.812Z,384.00
2018-05-15T03:27:38.652Z,412.00
2018-05-15T03:28:38.651Z,444.00
2018-05-15T03:29:39.597Z,480.00
2018-05-15T03:30:38.645Z,508.00
2018-05-15T03:31:38.653Z,544.00
2018-05-15T03:32:38.683Z,584.00
2018-05-15T03:33:38.646Z,620.00
2018-05-15T03:34:38.641Z,664.00
2018-05-15T03:35:38.637Z,700.00
2018-05-15T03:36:38.634Z,740.00
2018-05-15T03:38:13.799Z,784.00
2018-05-15T03:38:38.659Z,832.00
2018-05-15T03:39:38.633Z,876.00
2018-05-15T03:40:38.630Z,920.00
2018-05-15T03:41:38.634Z,968.00
2018-05-15T03:42:38.673Z,1024.00
2018-05-15T03:43:38.787Z,1076.00
2018-05-15T03:44:38.623Z,1128.00
2018-05-15T03:45:38.620Z,1184.00
2018-05-15T03:46:38.623Z,1240.00
2018-05-15T03:47:41.802Z,1304.00
2018-05-15T03:48:38.672Z,1364.00
2018-05-15T03:49:38.613Z,1432.00
2018-05-15T03:50:38.615Z,1496.00
2018-05-15T03:51:38.623Z,1568.00
2018-05-15T03:52:38.775Z,1640.00
2018-05-15T03:53:38.607Z,1712.00
2018-05-15T03:54:38.611Z,1784.00
2018-05-15T03:55:38.611Z,1852.00
2018-05-15T03:56:38.602Z,1924.00
2018-05-15T03:57:38.604Z,1992.00
2018-05-15T03:58:38.658Z,2064.00
2018-05-15T03:59:38.597Z,2152.00
2018-05-15T04:00:38.596Z,2264.00
2018-05-15T04:01:38.595Z,2356.00
2018-05-15T04:02:41.799Z,2440.00
2018-05-15T04:03:38.596Z,2512.00
2018-05-15T04:04:38.592Z,2588.00
2018-05-15T04:05:38.605Z,2664.00
2018-05-15T04:06:38.984Z,2740.00
2018-05-15T04:07:38.633Z,2800.00
2018-05-15T04:08:38.637Z,2864.00
2018-05-15T04:09:38.581Z,2948.00
2018-05-15T04:10:38.583Z,3028.00
2018-05-15T04:11:38.580Z,3096.00
2018-05-15T04:19:09.380Z,3560.00
2018-05-15T04:19:45.272Z,3604.00
2018-05-15T04:20:45.270Z,3532.00
2018-05-15T04:21:45.289Z,3468.00
2018-05-15T04:23:24.379Z,3544.00
2018-05-15T04:23:45.258Z,3592.00
2018-05-15T04:24:45.269Z,3572.00
2018-05-15T04:25:45.262Z,3580.00
2018-05-15T04:26:45.268Z,3612.00
2018-05-15T04:27:45.260Z,3676.00
2018-05-15T04:31:51.749Z,4328.00
2018-05-15T04:32:48.643Z,4396.00
2018-05-15T04:41:56.297Z,4868.00
2018-05-15T04:42:30.421Z,4888.00
2018-05-15T04:43:32.836Z,4972.00
2018-05-15T04:47:32.437Z,5632.00
2018-05-15T04:48:32.757Z,5748.00
2018-05-15T04:49:55.786Z,5956.00
2018-05-15T04:50:30.850Z,6168.00
2018-05-15T04:51:30.968Z,6304.00
2018-05-15T04:52:31.945Z,6516.00
2018-05-15T04:53:31.853Z,6724.00
2018-05-15T04:54:31.023Z,6724.00
2018-05-15T04:55:31.924Z,7012.00
2018-05-15T04:56:31.426Z,7228.00
2018-05-15T04:57:30.976Z,7156.00
2018-05-15T04:58:30.984Z,7240.00
2018-05-15T04:59:30.851Z,7060.00
2018-05-15T05:00:30.901Z,7112.00
2018-05-15T05:01:32.068Z,7024.00
2018-05-15T05:02:30.850Z,6944.00
2018-05-15T05:03:32.136Z,7256.00
2018-05-15T05:04:44.987Z,7496.00
2018-05-15T05:05:30.850Z,7572.00
2018-05-15T05:06:30.849Z,7868.00
2018-05-15T05:07:30.872Z,7716.00
2018-05-15T05:08:32.989Z,7784.00
2018-05-15T05:11:04.188Z,8372.00
2018-05-15T05:12:02.561Z,8420.00
2018-05-15T05:13:04.908Z,8336.00
2018-05-15T05:14:02.447Z,8420.00
2018-05-15T05:15:13.154Z,8772.00
2018-05-15T05:16:04.188Z,9052.00
2018-05-15T05:17:04.279Z,9776.00
2018-05-15T05:18:03.576Z,10192.00
2018-05-15T05:19:02.636Z,10280.00
2018-05-15T05:20:02.563Z,10492.00
2018-05-15T05:21:04.179Z,10560.00
2018-05-15T05:22:05.165Z,10536.00
2018-05-15T05:23:02.552Z,10620.00
2018-05-15T05:24:03.665Z,10704.00
2018-05-15T05:25:03.254Z,10856.00
2018-05-15T05:26:02.589Z,11268.00
2018-05-15T05:27:02.485Z,11828.00
2018-05-15T05:28:02.469Z,12624.00
2018-05-15T05:29:03.017Z,13060.00
2018-05-15T05:30:02.473Z,12996.00
2018-05-15T05:31:25.199Z,13308.00
2018-05-15T05:32:02.465Z,13312.00
2018-05-15T05:33:02.467Z,13112.00
2018-05-15T05:34:02.473Z,13172.00
2018-05-15T05:35:02.472Z,12672.00
2018-05-15T05:36:20.615Z,13688.00
2018-05-15T05:37:02.477Z,12752.00
2018-05-15T05:38:02.477Z,13480.00
2018-05-15T05:39:02.479Z,13348.00
2018-05-15T05:40:02.570Z,13812.00
2018-05-15T05:41:02.610Z,13560.00
2018-05-15T05:42:02.481Z,13464.00
2018-05-15T05:43:02.502Z,13176.00
2018-05-15T05:44:02.486Z,13132.00
2018-05-15T05:45:02.491Z,13044.00
2018-05-15T05:46:03.250Z,13264.00
2018-05-15T05:47:02.548Z,13276.00
2018-05-15T05:48:02.491Z,13360.00
2018-05-15T05:49:02.503Z,13468.00
2018-05-15T05:50:02.525Z,14788.00
2018-05-15T05:51:02.499Z,16756.00
2018-05-15T05:52:04.272Z,18076.00
2018-05-15T05:53:02.506Z,18560.00
2018-05-15T05:54:02.503Z,18400.00
2018-05-15T05:55:02.508Z,20064.00
2018-05-15T05:56:02.517Z,20512.00
2018-05-15T05:57:05.947Z,19552.00
2018-05-15T05:58:02.519Z,19072.00
2018-05-15T05:59:02.520Z,18400.00
2018-05-15T06:00:02.523Z,18112.00
2018-05-15T06:01:02.527Z,16860.00
2018-05-15T06:02:10.108Z,16872.00
2018-05-15T06:03:03.060Z,16280.00
2018-05-15T06:04:02.551Z,15496.00
2018-05-15T06:05:02.533Z,14900.00
2018-05-15T06:06:02.536Z,14684.00
2018-05-15T06:07:02.582Z,14996.00
2018-05-15T06:08:03.068Z,14900.00
2018-05-15T06:09:02.549Z,14724.00
2018-05-15T06:10:02.545Z,13732.00
2018-05-15T06:11:02.552Z,13832.00
2018-05-15T06:12:02.679Z,13508.00
2018-05-15T06:13:02.557Z,11268.00
2018-05-15T06:14:02.558Z,11400.00
2018-05-15T06:15:02.561Z,11476.00
2018-05-15T06:16:02.562Z,11708.00
2018-05-15T06:17:02.572Z,13820.00
2018-05-15T06:18:03.118Z,14096.00
2018-05-15T06:19:02.571Z,15180.00
2018-05-15T06:20:02.573Z,15920.00
2018-05-15T06:21:02.639Z,16928.00
2018-05-15T06:22:03.126Z,17068.00
2018-05-15T06:23:02.583Z,16468.00
2018-05-15T06:24:02.584Z,16604.00
2018-05-15T06:25:02.590Z,16576.00
2018-05-15T06:26:02.591Z,16720.00
2018-05-15T06:27:02.593Z,16968.00
2018-05-15T06:28:04.787Z,17324.00
2018-05-15T06:29:02.605Z,17312.00
2018-05-15T06:30:02.604Z,16680.00
2018-05-15T06:31:02.608Z,16732.00
2018-05-15T06:32:02.625Z,17604.00
2018-05-15T06:33:17.309Z,17384.00
2018-05-15T06:34:02.620Z,17132.00
2018-05-15T06:35:02.632Z,17116.00
2018-05-15T06:36:02.629Z,16844.00
2018-05-15T06:37:02.638Z,16728.00
2018-05-15T06:38:10.609Z,17080.00
2018-05-15T06:39:02.650Z,15380.00
2018-05-15T06:40:02.645Z,14520.00
2018-05-15T06:41:02.649Z,15224.00
2018-05-15T06:42:02.655Z,16768.00
2018-05-15T06:43:02.838Z,18336.00
2018-05-15T06:44:02.658Z,17920.00
2018-05-15T06:45:02.664Z,16204.00
2018-05-15T06:46:02.675Z,17544.00
2018-05-15T06:47:02.671Z,20800.00
2018-05-15T06:48:02.679Z,23424.00
2018-05-15T06:49:04.616Z,27296.00
2018-05-15T06:50:02.717Z,25664.00
2018-05-15T06:51:02.689Z,22176.00
2018-05-15T06:52:02.690Z,19872.00
2018-05-15T06:53:02.789Z,21280.00
2018-05-15T06:54:03.672Z,23488.00
2018-05-15T06:55:02.701Z,25120.00
2018-05-15T06:56:02.717Z,26656.00
2018-05-15T06:57:02.710Z,28160.00
2018-05-15T06:58:04.631Z,25760.00
2018-05-15T06:59:02.722Z,24096.00
2018-05-15T07:00:02.729Z,29696.00
2018-05-15T07:01:02.729Z,24928.00
2018-05-15T07:02:02.732Z,27584.00
2018-05-15T07:03:02.780Z,26048.00
2018-05-15T07:04:02.759Z,26304.00
2018-05-15T07:05:02.745Z,25792.00
2018-05-15T07:06:02.751Z,26624.00
2018-05-15T07:07:02.757Z,29728.00
2018-05-15T07:08:06.313Z,25600.00
2018-05-15T07:09:02.767Z,25952.00
2018-05-15T07:10:02.774Z,25792.00
2018-05-15T07:11:02.780Z,25632.00
2018-05-15T07:12:02.784Z,24000.00
2018-05-15T07:14:34.515Z,17720.00
2018-05-15T07:15:34.455Z,16952.00
2018-05-15T07:16:34.459Z,16640.00
2018-05-15T07:17:34.524Z,17544.00
2018-05-15T07:18:34.462Z,23168.00
2018-05-15T07:19:34.536Z,28288.00
2018-05-15T07:20:34.475Z,31232.00
2018-05-15T07:21:34.477Z,33472.00
2018-05-15T07:22:37.543Z,41248.00
2018-05-15T07:23:34.712Z,40992.00
2018-05-15T07:24:34.496Z,36896.00
2018-05-15T07:25:35.369Z,49088.00
2018-05-15T07:26:34.525Z,46208.00
2018-05-15T07:27:34.509Z,28512.00
2018-05-15T07:28:35.060Z,29856.00
2018-05-15T07:29:34.520Z,29792.00
2018-05-15T07:30:34.533Z,25184.00
2018-05-15T07:31:34.533Z,24672.00
2018-05-15T07:32:34.538Z,25792.00
2018-05-15T07:33:45.593Z,26400.00
2018-05-15T07:34:35.208Z,28672.00
2018-05-15T07:35:34.550Z,27296.00
2018-05-15T07:36:34.558Z,27008.00
2018-05-15T07:37:34.573Z,25728.00
2018-05-15T07:38:49.036Z,24032.00
2018-05-15T07:39:34.582Z,22656.00
2018-05-15T07:40:34.582Z,21408.00
2018-05-15T07:41:34.587Z,21376.00
2018-05-15T07:42:34.596Z,22528.00
2018-05-15T07:43:34.603Z,23552.00
2018-05-15T07:44:49.301Z,23936.00
2018-05-15T07:45:34.607Z,22432.00
2018-05-15T07:46:34.621Z,20256.00
2018-05-15T07:47:34.628Z,19456.00
2018-05-15T07:48:45.555Z,19232.00
2018-05-15T07:49:34.628Z,18720.00
2018-05-15T07:50:34.636Z,18688.00
2018-05-15T07:51:34.644Z,18848.00
2018-05-15T07:52:34.643Z,20160.00
2018-05-15T07:53:34.738Z,22080.00
2018-05-15T07:54:40.119Z,23296.00
2018-05-15T07:55:34.660Z,22688.00
2018-05-15T07:56:34.669Z,22048.00
2018-05-15T07:57:34.668Z,20608.00
2018-05-15T07:58:34.673Z,18880.00
2018-05-15T07:59:40.050Z,17472.00
2018-05-15T08:00:34.684Z,17568.00
2018-05-15T08:01:34.994Z,20000.00
2018-05-15T08:02:34.704Z,25312.00
2018-05-15T08:03:34.695Z,31072.00
2018-05-15T08:04:34.750Z,31776.00
2018-05-15T08:05:34.705Z,31456.00
2018-05-15T08:06:34.710Z,32224.00
2018-05-15T08:07:36.028Z,32576.00
2018-05-15T08:08:34.732Z,33440.00
2018-05-15T08:09:34.728Z,30656.00
2018-05-15T08:10:34.771Z,27488.00
2018-05-15T08:11:34.744Z,27584.00
2018-05-15T08:12:34.744Z,30048.00
2018-05-15T08:13:34.736Z,32416.00
2018-05-15T08:14:34.754Z,35424.00
2018-05-15T08:15:38.107Z,41280.00
2018-05-15T08:16:34.750Z,43648.00
2018-05-15T08:17:34.751Z,40288.00
2018-05-15T08:18:34.757Z,37824.00
2018-05-15T08:19:45.556Z,36032.00
2018-05-15T08:20:34.770Z,37344.00
2018-05-15T08:21:34.776Z,42880.00
2018-05-15T08:22:35.220Z,41088.00
2018-05-15T08:23:34.835Z,39424.00
2018-05-15T08:24:34.794Z,37760.00
2018-05-15T08:25:34.801Z,35200.00
2018-05-15T08:26:34.810Z,32384.00
2018-05-15T08:27:34.813Z,29408.00
2018-05-15T08:31:46.140Z,22592.00
2018-05-15T08:32:38.488Z,21728.00
2018-05-15T08:35:47.242Z,21888.00
2018-05-15T08:36:10.139Z,22336.00
2018-05-15T08:37:10.144Z,24992.00
2018-05-15T08:38:10.147Z,32224.00
2018-05-15T08:39:31.765Z,37408.00
2018-05-15T08:40:10.156Z,41440.00
2018-05-15T08:41:10.162Z,42784.00
2018-05-15T08:42:10.187Z,44320.00
2018-05-15T08:43:10.180Z,43552.00
2018-05-15T08:44:10.184Z,41760.00
2018-05-15T08:45:10.316Z,42560.00
2018-05-15T08:46:10.201Z,41888.00
2018-05-15T08:47:10.196Z,42752.00
2018-05-15T08:48:10.209Z,41728.00
2018-05-15T08:49:10.212Z,42272.00
2018-05-15T08:50:28.748Z,42656.00
2018-05-15T08:51:10.228Z,37920.00
2018-05-15T08:52:10.233Z,32864.00
2018-05-15T08:53:10.256Z,30592.00
2018-05-15T08:54:10.245Z,32928.00
2018-05-15T08:55:15.760Z,36640.00
2018-05-15T08:56:10.262Z,42336.00
2018-05-15T08:57:10.267Z,41760.00
2018-05-15T08:58:10.357Z,40032.00
2018-05-15T08:59:10.343Z,39744.00
2018-05-15T09:00:33.658Z,41952.00
2018-05-15T09:01:10.374Z,41952.00
2018-05-15T09:02:10.402Z,43488.00
2018-05-15T09:03:10.447Z,48928.00
2018-05-15T09:04:10.363Z,53312.00
2018-05-15T09:05:12.258Z,53472.00
2018-05-15T09:06:10.406Z,48512.00
2018-05-15T09:07:10.364Z,45984.00
2018-05-15T09:08:10.584Z,49760.00
2018-05-15T09:09:10.465Z,51200.00
2018-05-15T09:10:11.231Z,43040.00
2018-05-15T09:11:10.878Z,36960.00
2018-05-15T09:12:10.383Z,32832.00
2018-05-15T09:13:10.391Z,30304.00
2018-05-15T09:14:10.404Z,28224.00
2018-05-15T09:15:10.495Z,26080.00
2018-05-15T09:16:15.753Z,24768.00
2018-05-15T09:17:10.572Z,24096.00
2018-05-15T09:18:10.446Z,23136.00
2018-05-15T09:19:10.454Z,21664.00
2018-05-15T09:20:12.248Z,20384.00
2018-05-15T09:21:10.472Z,19296.00
2018-05-15T09:22:11.295Z,18304.00
2018-05-15T09:23:10.474Z,18368.00
2018-05-15T09:24:10.484Z,19648.00
2018-05-15T09:25:42.256Z,21824.00
2018-05-15T09:26:10.494Z,24224.00
2018-05-15T09:27:10.921Z,27872.00
2018-05-15T09:28:10.758Z,29408.00
2018-05-15T09:29:10.605Z,29920.00
2018-05-15T09:30:11.332Z,29408.00
2018-05-15T09:31:10.534Z,28928.00
2018-05-15T09:32:10.544Z,28256.00
2018-05-15T09:33:10.525Z,26880.00
2018-05-15T09:34:10.547Z,26560.00
2018-05-15T09:35:11.261Z,28480.00
2018-05-15T09:36:12.251Z,32896.00
2018-05-15T09:37:10.669Z,35744.00
2018-05-15T09:38:10.572Z,34656.00
2018-05-15T09:39:10.580Z,33120.00
2018-05-15T09:40:12.255Z,33312.00
2018-05-15T09:41:11.016Z,33984.00
2018-05-15T09:42:10.675Z,37632.00
2018-05-15T09:43:10.613Z,41440.00
2018-05-15T09:44:10.614Z,47136.00
2018-05-15T09:45:21.262Z,61568.00
2018-05-15T09:46:10.699Z,85344.00
2018-05-15T09:47:11.695Z,89440.00
2018-05-15T09:48:12.135Z,60192.00
2018-05-15T09:49:10.650Z,77696.00
2018-05-15T09:50:10.652Z,59360.00
2018-05-15T09:52:47.918Z,99424.00
2018-05-15T09:53:42.339Z,120064.00
2018-05-15T09:54:42.338Z,126304.00
2018-05-15T09:56:04.401Z,122336.00
2018-05-15T09:56:42.473Z,120160.00
2018-05-15T09:57:42.368Z,121792.00
2018-05-15T09:58:43.296Z,116544.00
2018-05-15T09:59:42.387Z,117024.00
2018-05-15T10:00:42.395Z,117248.00
2018-05-15T10:02:04.434Z,118880.00
2018-05-15T10:02:42.423Z,119200.00
2018-05-15T10:03:42.438Z,119872.00
2018-05-15T10:04:42.441Z,127392.00
2018-05-15T10:05:42.457Z,117984.00
2018-05-15T10:06:42.618Z,89568.00
2018-05-15T10:07:43.180Z,126304.00
2018-05-15T10:08:42.502Z,124416.00
2018-05-15T10:09:42.523Z,42368.00
2018-05-15T10:10:42.520Z,63328.00
2018-05-15T10:11:42.591Z,43584.00
2018-05-15T10:12:42.721Z,43904.00
2018-05-15T10:13:42.581Z,40032.00
2018-05-15T10:14:42.580Z,38336.00
2018-05-15T10:15:42.600Z,39072.00
2018-05-15T10:16:42.610Z,38272.00
2018-05-15T10:17:42.795Z,36000.00
2018-05-15T10:18:42.635Z,35200.00
2018-05-15T10:19:42.646Z,34944.00
2018-05-15T10:20:42.654Z,34816.00
2018-05-15T10:21:42.662Z,32544.00
2018-05-15T10:22:42.680Z,28224.00
2018-05-15T10:24:11.432Z,26976.00
2018-05-15T10:24:42.715Z,26336.00
2018-05-15T10:25:42.708Z,24928.00
2018-05-15T10:26:42.720Z,23584.00
2018-05-15T10:27:42.731Z,23616.00
2018-05-15T10:28:50.435Z,24576.00
2018-05-15T10:29:42.754Z,27392.00
2018-05-15T10:30:42.762Z,46752.00
2018-05-15T10:31:42.773Z,97312.00
2018-05-15T10:32:42.906Z,128256.00
2018-05-15T10:33:42.824Z,118912.00
2018-05-15T10:34:42.796Z,118656.00
2018-05-15T10:35:42.808Z,58720.00
2018-05-15T10:36:42.818Z,52480.00
2018-05-15T10:37:42.825Z,121824.00
2018-05-15T10:38:42.901Z,56224.00
2018-05-15T10:39:42.845Z,124160.00
2018-05-15T10:40:42.852Z,121792.00
2018-05-15T10:41:42.862Z,118560.00
2018-05-15T10:42:42.897Z,88416.00
2018-05-15T10:43:42.934Z,110432.00
2018-05-15T10:44:42.902Z,92256.00
2018-05-15T10:45:42.910Z,34528.00
2018-05-15T10:46:42.945Z,34496.00
2018-05-15T10:47:42.931Z,41664.00
2018-05-15T10:48:43.010Z,65920.00
2018-05-15T10:49:42.974Z,55264.00
2018-05-15T10:50:42.985Z,63552.00
2018-05-15T10:51:42.977Z,58528.00
2018-05-15T10:52:43.143Z,42784.00
2018-05-15T10:53:43.049Z,35264.00
2018-05-15T10:54:43.010Z,31520.00
2018-05-15T10:55:43.028Z,89024.00
2018-05-15T10:56:43.036Z,31744.00
2018-05-15T10:57:43.051Z,32608.00
2018-05-15T10:58:46.437Z,33440.00
2018-05-15T10:59:43.100Z,38656.00
2018-05-15T11:00:43.072Z,36704.00
2018-05-15T11:01:43.713Z,38784.00
2018-05-15T11:02:43.100Z,48320.00
2018-05-15T11:03:43.260Z,49696.00
2018-05-15T11:04:43.127Z,80256.00
2018-05-15T11:05:43.125Z,94624.00
2018-05-15T11:06:43.141Z,104736.00
2018-05-15T11:07:43.146Z,108864.00
2018-05-15T11:08:43.163Z,105440.00
2018-05-15T11:09:43.465Z,104608.00
2018-05-15T11:10:43.182Z,50336.00
2018-05-15T11:11:43.186Z,101760.00
2018-05-15T11:12:43.325Z,27360.00
2018-05-15T11:13:43.258Z,24672.00
2018-05-15T11:14:43.222Z,26688.00
2018-05-15T11:15:43.235Z,26880.00
2018-05-15T11:16:43.242Z,25248.00
2018-05-15T11:17:43.255Z,23232.00
2018-05-15T11:18:43.310Z,21440.00
2018-05-15T11:19:43.271Z,20608.00
2018-05-15T11:20:43.292Z,21408.00
2018-05-15T11:21:43.300Z,23648.00
2018-05-15T11:22:43.324Z,26560.00
2018-05-15T11:23:57.535Z,28288.00
2018-05-15T11:24:43.329Z,28480.00
2018-05-15T11:25:43.328Z,26656.00
2018-05-15T11:26:43.367Z,24608.00
2018-05-15T11:27:43.350Z,22784.00
2018-05-15T11:28:43.359Z,21152.00
2018-05-15T11:29:43.445Z,19936.00
2018-05-15T11:30:43.374Z,19424.00
2018-05-15T11:31:43.381Z,19264.00
2018-05-15T11:32:43.390Z,19424.00
2018-05-15T11:33:43.609Z,18688.00
2018-05-15T11:34:43.951Z,17632.00
2018-05-15T11:35:43.435Z,16584.00
2018-05-15T11:36:43.416Z,15376.00
2018-05-15T11:37:43.423Z,14984.00
2018-05-15T11:38:43.423Z,14176.00
2018-05-15T11:39:43.435Z,12432.00
2018-05-15T11:40:43.485Z,10828.00
2018-05-15T11:41:43.528Z,9824.00
2018-05-15T11:42:43.450Z,9760.00
2018-05-15T11:43:43.459Z,10616.00
2018-05-15T11:44:43.470Z,12788.00
2018-05-15T11:45:43.508Z,14792.00
2018-05-15T11:46:43.472Z,15404.00
2018-05-15T11:47:43.729Z,15268.00
2018-05-15T11:48:43.902Z,14212.00
2018-05-15T11:49:44.184Z,12776.00
2018-05-15T11:50:45.660Z,12628.00
2018-05-15T11:51:44.268Z,14588.00
2018-05-15T11:52:44.730Z,17184.00
2018-05-15T11:53:43.515Z,14672.00
2018-05-15T11:54:43.585Z,12080.00
2018-05-15T11:55:43.515Z,10700.00
2018-05-15T11:56:43.522Z,11672.00
2018-05-15T11:57:43.526Z,17280.00
2018-05-15T11:58:43.530Z,28960.00
2018-05-15T11:59:43.590Z,118752.00
2018-05-15T12:00:43.586Z,91520.00
2018-05-15T12:01:43.538Z,131904.00
2018-05-15T12:02:43.584Z,134400.00
2018-05-15T12:03:43.564Z,130912.00
2018-05-15T12:04:43.556Z,127296.00
2018-05-15T12:06:04.964Z,122752.00
2018-05-15T12:06:43.567Z,126304.00
2018-05-15T12:07:43.570Z,125088.00
2018-05-15T12:08:43.580Z,87456.00
2018-05-15T12:09:43.589Z,73056.00
2018-05-15T12:10:54.465Z,107424.00
2018-05-15T12:11:43.604Z,141120.00
2018-05-15T12:12:43.616Z,140160.00
2018-05-15T12:13:43.624Z,143936.00
2018-05-15T12:14:43.632Z,124160.00
2018-05-15T12:15:44.350Z,64896.00
2018-05-15T12:16:43.727Z,53664.00
2018-05-15T12:17:43.686Z,54016.00
2018-05-15T12:18:46.410Z,55648.00
2018-05-15T12:19:58.452Z,56064.00
2018-05-15T12:21:05.473Z,55712.00
2018-05-15T12:21:43.699Z,49056.00
2018-05-15T12:22:44.434Z,46880.00
2018-05-15T12:23:43.777Z,46016.00
2018-05-15T12:24:43.743Z,45696.00
2018-05-15T12:25:44.766Z,55360.00
2018-05-15T12:26:43.833Z,45920.00
2018-05-15T12:27:43.857Z,43776.00
2018-05-15T12:28:43.792Z,42656.00
2018-05-15T12:29:43.801Z,43328.00
2018-05-15T12:30:43.854Z,41472.00
2018-05-15T12:32:04.836Z,40896.00
2018-05-15T12:32:44.494Z,42912.00
2018-05-15T12:33:44.420Z,53472.00
2018-05-15T12:34:43.957Z,51520.00
2018-05-15T12:35:44.082Z,56224.00
2018-05-15T12:36:56.861Z,55712.00
2018-05-15T12:37:45.453Z,58048.00
2018-05-15T12:38:43.892Z,101920.00
2018-05-15T12:39:48.436Z,86528.00
2018-05-15T12:40:44.018Z,104032.00
2018-05-15T12:41:45.007Z,119616.00
2018-05-15T12:42:43.979Z,118848.00
2018-05-15T12:43:44.932Z,116736.00
2018-05-15T12:45:01.943Z,118304.00
2018-05-15T12:45:44.972Z,109216.00
2018-05-15T12:46:44.106Z,108672.00
2018-05-15T12:47:51.012Z,107552.00